sensor_id;sensor_type;location;lat;lon;timestamp;P1;durP1;ratioP1;P2;durP2;ratioP2
57846;SDS011;43675;50.030;21.952;2022-12-07T00:01:42;31.10;;;28.45;;
57846;SDS011;43675;50.030;21.952;2022-12-07T00:04:11;32.28;;;28.90;;
57846;SDS011;43675;50.030;21.952;2022-12-07T00:06:39;33.05;;;30.00;;
57846;SDS011;43675;50.030;21.952;2022-12-07T00:09:07;33.85;;;31.05;;
57846;SDS011;43675;50.030;21.952;2022-12-07T00:11:39;32.88;;;30.08;;
57846;SDS011;43675;50.030;21.952;2022-12-07T00:14:06;33.50;;;30.60;;
57846;SDS011;43675;50.030;21.952;2022-12-07T00:16:39;32.98;;;30.05;;
57846;SDS011;43675;50.030;21.952;2022-12-07T00:19:06;33.25;;;30.40;;
57846;SDS011;43675;50.030;21.952;2022-12-07T00:21:33;33.83;;;31.07;;
57846;SDS011;43675;50.030;21.952;2022-12-07T00:24:00;32.70;;;29.85;;
57846;SDS011;43675;50.030;21.952;2022-12-07T00:26:28;34.53;;;31.55;;
57846;SDS011;43675;50.030;21.952;2022-12-07T00:28:58;32.30;;;29.67;;
57846;SDS011;43675;50.030;21.952;2022-12-07T00:31:26;32.70;;;29.85;;
57846;SDS011;43675;50.030;21.952;2022-12-07T00:33:54;33.98;;;31.02;;
57846;SDS011;43675;50.030;21.952;2022-12-07T00:36:21;34.33;;;31.33;;
57846;SDS011;43675;50.030;21.952;2022-12-07T00:38:48;34.03;;;31.17;;
57846;SDS011;43675;50.030;21.952;2022-12-07T00:41:15;33.08;;;30.30;;
57846;SDS011;43675;50.030;21.952;2022-12-07T00:43:44;33.92;;;31.02;;
57846;SDS011;43675;50.030;21.952;2022-12-07T00:46:18;33.50;;;30.60;;
57846;SDS011;43675;50.030;21.952;2022-12-07T00:48:45;32.20;;;29.20;;
57846;SDS011;43675;50.030;21.952;2022-12-07T00:51:11;32.58;;;29.87;;
57846;SDS011;43675;50.030;21.952;2022-12-07T00:53:38;31.40;;;28.70;;
57846;SDS011;43675;50.030;21.952;2022-12-07T00:56:05;32.28;;;29.45;;
57846;SDS011;43675;50.030;21.952;2022-12-07T00:58:33;31.80;;;29.18;;
57846;SDS011;43675;50.030;21.952;2022-12-07T01:01:12;31.05;;;28.45;;
57846;SDS011;43675;50.030;21.952;2022-12-07T01:03:38;32.05;;;29.40;;
57846;SDS011;43675;50.030;21.952;2022-12-07T01:06:04;32.45;;;29.82;;
57846;SDS011;43675;50.030;21.952;2022-12-07T01:08:30;32.58;;;29.77;;
57846;SDS011;43675;50.030;21.952;2022-12-07T01:10:57;32.05;;;29.45;;
57846;SDS011;43675;50.030;21.952;2022-12-07T01:13:24;32.50;;;29.70;;
57846;SDS011;43675;50.030;21.952;2022-12-07T01:15:50;32.17;;;29.63;;
57846;SDS011;43675;50.030;21.952;2022-12-07T01:18:16;33.18;;;30.27;;
57846;SDS011;43675;50.030;21.952;2022-12-07T01:20:42;31.57;;;28.95;;
57846;SDS011;43675;50.030;21.952;2022-12-07T01:23:07;30.15;;;27.58;;
57846;SDS011;43675;50.030;21.952;2022-12-07T01:25:33;30.92;;;28.42;;
57846;SDS011;43675;50.030;21.952;2022-12-07T01:27:59;31.70;;;28.90;;
57846;SDS011;43675;50.030;21.952;2022-12-07T01:30:25;31.45;;;28.85;;
57846;SDS011;43675;50.030;21.952;2022-12-07T01:32:51;30.92;;;28.23;;
57846;SDS011;43675;50.030;21.952;2022-12-07T01:35:16;31.12;;;28.32;;
57846;SDS011;43675;50.030;21.952;2022-12-07T01:37:48;31.35;;;28.75;;
57846;SDS011;43675;50.030;21.952;2022-12-07T01:40:14;31.87;;;29.23;;
57846;SDS011;43675;50.030;21.952;2022-12-07T01:42:40;30.95;;;28.45;;
57846;SDS011;43675;50.030;21.952;2022-12-07T01:48:02;30.15;;;27.55;;
57846;SDS011;43675;50.030;21.952;2022-12-07T01:50:30;30.02;;;27.62;;
57846;SDS011;43675;50.030;21.952;2022-12-07T01:52:57;29.02;;;26.73;;
57846;SDS011;43675;50.030;21.952;2022-12-07T01:55:25;31.30;;;28.83;;
57846;SDS011;43675;50.030;21.952;2022-12-07T01:57:52;30.65;;;28.25;;
57846;SDS011;43675;50.030;21.952;2022-12-07T02:00:19;30.48;;;27.95;;
57846;SDS011;43675;50.030;21.952;2022-12-07T02:03:06;30.90;;;28.32;;
57846;SDS011;43675;50.030;21.952;2022-12-07T02:05:33;29.10;;;26.70;;
57846;SDS011;43675;50.030;21.952;2022-12-07T02:08:01;29.72;;;27.32;;
57846;SDS011;43675;50.030;21.952;2022-12-07T02:10:29;29.48;;;27.07;;
57846;SDS011;43675;50.030;21.952;2022-12-07T02:13:01;29.63;;;27.32;;
57846;SDS011;43675;50.030;21.952;2022-12-07T02:15:33;29.82;;;27.42;;
57846;SDS011;43675;50.030;21.952;2022-12-07T02:20:38;30.77;;;28.38;;
57846;SDS011;43675;50.030;21.952;2022-12-07T02:28:35;30.43;;;28.00;;
57846;SDS011;43675;50.030;21.952;2022-12-07T02:31:14;30.30;;;27.75;;
57846;SDS011;43675;50.030;21.952;2022-12-07T02:33:46;30.50;;;28.12;;
57846;SDS011;43675;50.030;21.952;2022-12-07T02:36:26;29.40;;;27.15;;
57846;SDS011;43675;50.030;21.952;2022-12-07T02:39:06;30.43;;;28.05;;
57846;SDS011;43675;50.030;21.952;2022-12-07T02:41:36;31.33;;;28.70;;
57846;SDS011;43675;50.030;21.952;2022-12-07T02:44:06;31.05;;;28.65;;
57846;SDS011;43675;50.030;21.952;2022-12-07T02:46:47;31.00;;;28.67;;
57846;SDS011;43675;50.030;21.952;2022-12-07T02:49:10;30.68;;;28.35;;
57846;SDS011;43675;50.030;21.952;2022-12-07T02:51:40;30.50;;;28.12;;
57846;SDS011;43675;50.030;21.952;2022-12-07T02:54:10;30.00;;;27.60;;
57846;SDS011;43675;50.030;21.952;2022-12-07T03:13:39;31.15;;;28.77;;
57846;SDS011;43675;50.030;21.952;2022-12-07T03:18:44;30.70;;;28.20;;
57846;SDS011;43675;50.030;21.952;2022-12-07T03:21:13;31.15;;;28.75;;
57846;SDS011;43675;50.030;21.952;2022-12-07T03:23:41;31.48;;;29.18;;
57846;SDS011;43675;50.030;21.952;2022-12-07T03:26:11;31.35;;;29.05;;
57846;SDS011;43675;50.030;21.952;2022-12-07T03:28:41;32.30;;;29.80;;
57846;SDS011;43675;50.030;21.952;2022-12-07T03:31:16;31.82;;;29.42;;
57846;SDS011;43675;50.030;21.952;2022-12-07T03:33:49;31.15;;;28.65;;
57846;SDS011;43675;50.030;21.952;2022-12-07T03:36:21;32.00;;;29.50;;
57846;SDS011;43675;50.030;21.952;2022-12-07T03:38:57;30.85;;;28.27;;
57846;SDS011;43675;50.030;21.952;2022-12-07T03:41:31;30.62;;;28.02;;
57846;SDS011;43675;50.030;21.952;2022-12-07T03:43:59;29.10;;;26.77;;
57846;SDS011;43675;50.030;21.952;2022-12-07T03:46:36;28.87;;;26.48;;
57846;SDS011;43675;50.030;21.952;2022-12-07T03:49:16;29.10;;;26.70;;
57846;SDS011;43675;50.030;21.952;2022-12-07T03:51:47;31.75;;;29.30;;
57846;SDS011;43675;50.030;21.952;2022-12-07T03:54:34;31.70;;;29.00;;
57846;SDS011;43675;50.030;21.952;2022-12-07T03:57:02;31.52;;;29.02;;
57846;SDS011;43675;50.030;21.952;2022-12-07T03:59:30;30.97;;;28.57;;
57846;SDS011;43675;50.030;21.952;2022-12-07T04:01:57;30.77;;;28.32;;
57846;SDS011;43675;50.030;21.952;2022-12-07T04:04:28;30.82;;;28.47;;
57846;SDS011;43675;50.030;21.952;2022-12-07T04:06:54;29.25;;;27.02;;
57846;SDS011;43675;50.030;21.952;2022-12-07T04:09:20;30.68;;;28.27;;
57846;SDS011;43675;50.030;21.952;2022-12-07T04:11:46;30.57;;;28.15;;
57846;SDS011;43675;50.030;21.952;2022-12-07T04:14:12;31.50;;;28.85;;
57846;SDS011;43675;50.030;21.952;2022-12-07T04:16:38;32.03;;;29.63;;
57846;SDS011;43675;50.030;21.952;2022-12-07T04:19:04;32.65;;;29.95;;
57846;SDS011;43675;50.030;21.952;2022-12-07T04:21:29;32.45;;;29.92;;
57846;SDS011;43675;50.030;21.952;2022-12-07T04:23:55;31.07;;;28.62;;
57846;SDS011;43675;50.030;21.952;2022-12-07T04:26:21;31.07;;;28.57;;
57846;SDS011;43675;50.030;21.952;2022-12-07T04:28:46;32.93;;;30.57;;
57846;SDS011;43675;50.030;21.952;2022-12-07T04:31:12;32.75;;;30.27;;
57846;SDS011;43675;50.030;21.952;2022-12-07T04:33:38;31.93;;;29.63;;
57846;SDS011;43675;50.030;21.952;2022-12-07T04:36:04;32.25;;;29.87;;
57846;SDS011;43675;50.030;21.952;2022-12-07T04:38:30;31.82;;;29.37;;
57846;SDS011;43675;50.030;21.952;2022-12-07T04:40:56;32.40;;;30.00;;
57846;SDS011;43675;50.030;21.952;2022-12-07T04:43:22;32.78;;;30.27;;
57846;SDS011;43675;50.030;21.952;2022-12-07T04:45:48;32.95;;;30.17;;
57846;SDS011;43675;50.030;21.952;2022-12-07T04:48:14;34.35;;;31.57;;
57846;SDS011;43675;50.030;21.952;2022-12-07T04:50:40;34.65;;;31.70;;
57846;SDS011;43675;50.030;21.952;2022-12-07T04:53:05;33.50;;;30.90;;
57846;SDS011;43675;50.030;21.952;2022-12-07T04:55:31;33.55;;;31.05;;
57846;SDS011;43675;50.030;21.952;2022-12-07T04:57:57;32.25;;;29.72;;
57846;SDS011;43675;50.030;21.952;2022-12-07T05:00:23;32.08;;;29.48;;
57846;SDS011;43675;50.030;21.952;2022-12-07T05:02:48;28.85;;;26.45;;
57846;SDS011;43675;50.030;21.952;2022-12-07T05:05:14;26.62;;;24.32;;
57846;SDS011;43675;50.030;21.952;2022-12-07T05:07:40;26.30;;;24.10;;
57846;SDS011;43675;50.030;21.952;2022-12-07T05:10:06;27.05;;;24.92;;
57846;SDS011;43675;50.030;21.952;2022-12-07T05:12:32;27.17;;;24.98;;
57846;SDS011;43675;50.030;21.952;2022-12-07T05:14:58;27.73;;;25.45;;
57846;SDS011;43675;50.030;21.952;2022-12-07T05:17:24;27.35;;;25.12;;
57846;SDS011;43675;50.030;21.952;2022-12-07T05:19:49;27.20;;;24.98;;
57846;SDS011;43675;50.030;21.952;2022-12-07T05:22:15;28.02;;;25.72;;
57846;SDS011;43675;50.030;21.952;2022-12-07T05:24:41;28.20;;;25.70;;
57846;SDS011;43675;50.030;21.952;2022-12-07T05:27:06;27.13;;;24.92;;
57846;SDS011;43675;50.030;21.952;2022-12-07T05:29:32;27.55;;;25.45;;
57846;SDS011;43675;50.030;21.952;2022-12-07T05:31:58;26.00;;;23.90;;
57846;SDS011;43675;50.030;21.952;2022-12-07T05:34:23;26.35;;;24.35;;
57846;SDS011;43675;50.030;21.952;2022-12-07T05:36:49;26.80;;;24.72;;
57846;SDS011;43675;50.030;21.952;2022-12-07T05:39:15;25.65;;;23.70;;
57846;SDS011;43675;50.030;21.952;2022-12-07T05:41:41;25.90;;;23.98;;
57846;SDS011;43675;50.030;21.952;2022-12-07T05:44:07;26.10;;;24.00;;
57846;SDS011;43675;50.030;21.952;2022-12-07T05:46:33;24.95;;;22.95;;
57846;SDS011;43675;50.030;21.952;2022-12-07T05:49:00;24.98;;;23.00;;
57846;SDS011;43675;50.030;21.952;2022-12-07T05:51:26;24.37;;;22.58;;
57846;SDS011;43675;50.030;21.952;2022-12-07T05:53:52;24.50;;;22.52;;
57846;SDS011;43675;50.030;21.952;2022-12-07T05:56:18;24.25;;;22.50;;
57846;SDS011;43675;50.030;21.952;2022-12-07T05:58:44;23.65;;;21.75;;
57846;SDS011;43675;50.030;21.952;2022-12-07T06:01:10;24.32;;;22.45;;
57846;SDS011;43675;50.030;21.952;2022-12-07T06:03:35;23.75;;;21.95;;
57846;SDS011;43675;50.030;21.952;2022-12-07T06:06:01;24.02;;;22.05;;
57846;SDS011;43675;50.030;21.952;2022-12-07T06:08:27;24.10;;;22.22;;
57846;SDS011;43675;50.030;21.952;2022-12-07T06:10:52;22.22;;;20.52;;
57846;SDS011;43675;50.030;21.952;2022-12-07T06:13:18;24.25;;;22.45;;
57846;SDS011;43675;50.030;21.952;2022-12-07T06:15:44;24.32;;;22.50;;
57846;SDS011;43675;50.030;21.952;2022-12-07T06:18:09;23.15;;;21.37;;
57846;SDS011;43675;50.030;21.952;2022-12-07T06:20:35;23.47;;;21.77;;
57846;SDS011;43675;50.030;21.952;2022-12-07T06:23:01;23.30;;;21.60;;
57846;SDS011;43675;50.030;21.952;2022-12-07T06:25:26;22.13;;;20.52;;
57846;SDS011;43675;50.030;21.952;2022-12-07T06:27:52;21.65;;;19.85;;
57846;SDS011;43675;50.030;21.952;2022-12-07T06:30:18;22.20;;;20.60;;
57846;SDS011;43675;50.030;21.952;2022-12-07T06:32:44;22.17;;;20.40;;
57846;SDS011;43675;50.030;21.952;2022-12-07T06:35:09;25.50;;;23.40;;
57846;SDS011;43675;50.030;21.952;2022-12-07T06:37:35;24.15;;;22.25;;
57846;SDS011;43675;50.030;21.952;2022-12-07T06:40:01;23.18;;;21.45;;
57846;SDS011;43675;50.030;21.952;2022-12-07T06:42:26;23.35;;;21.35;;
57846;SDS011;43675;50.030;21.952;2022-12-07T06:44:52;23.87;;;21.93;;
57846;SDS011;43675;50.030;21.952;2022-12-07T06:47:18;23.18;;;21.57;;
57846;SDS011;43675;50.030;21.952;2022-12-07T06:49:44;24.12;;;22.25;;
57846;SDS011;43675;50.030;21.952;2022-12-07T06:52:09;24.80;;;22.70;;
57846;SDS011;43675;50.030;21.952;2022-12-07T06:54:35;24.82;;;22.90;;
57846;SDS011;43675;50.030;21.952;2022-12-07T06:57:01;24.18;;;22.17;;
57846;SDS011;43675;50.030;21.952;2022-12-07T06:59:26;23.57;;;21.75;;
57846;SDS011;43675;50.030;21.952;2022-12-07T07:01:52;23.45;;;21.60;;
57846;SDS011;43675;50.030;21.952;2022-12-07T07:04:18;24.27;;;22.40;;
57846;SDS011;43675;50.030;21.952;2022-12-07T07:06:44;23.83;;;21.93;;
57846;SDS011;43675;50.030;21.952;2022-12-07T07:09:09;23.77;;;21.85;;
57846;SDS011;43675;50.030;21.952;2022-12-07T07:11:35;22.22;;;20.62;;
57846;SDS011;43675;50.030;21.952;2022-12-07T07:14:01;23.55;;;21.65;;
57846;SDS011;43675;50.030;21.952;2022-12-07T07:16:26;23.27;;;21.48;;
57846;SDS011;43675;50.030;21.952;2022-12-07T07:18:52;24.05;;;22.02;;
57846;SDS011;43675;50.030;21.952;2022-12-07T07:21:18;24.25;;;22.05;;
57846;SDS011;43675;50.030;21.952;2022-12-07T07:23:43;24.37;;;22.27;;
57846;SDS011;43675;50.030;21.952;2022-12-07T07:26:09;24.50;;;22.35;;
57846;SDS011;43675;50.030;21.952;2022-12-07T07:28:35;24.27;;;22.27;;
57846;SDS011;43675;50.030;21.952;2022-12-07T07:31:01;24.18;;;21.97;;
57846;SDS011;43675;50.030;21.952;2022-12-07T07:33:26;23.32;;;21.33;;
57846;SDS011;43675;50.030;21.952;2022-12-07T07:35:52;24.10;;;21.80;;
57846;SDS011;43675;50.030;21.952;2022-12-07T07:38:18;23.83;;;21.77;;
57846;SDS011;43675;50.030;21.952;2022-12-07T07:40:43;23.25;;;21.35;;
57846;SDS011;43675;50.030;21.952;2022-12-07T07:43:09;23.50;;;21.48;;
57846;SDS011;43675;50.030;21.952;2022-12-07T07:45:35;24.05;;;21.90;;
57846;SDS011;43675;50.030;21.952;2022-12-07T07:48:01;25.40;;;23.00;;
57846;SDS011;43675;50.030;21.952;2022-12-07T07:50:27;24.30;;;22.20;;
57846;SDS011;43675;50.030;21.952;2022-12-07T07:52:52;22.67;;;20.92;;
57846;SDS011;43675;50.030;21.952;2022-12-07T07:55:18;24.70;;;22.35;;
57846;SDS011;43675;50.030;21.952;2022-12-07T07:57:44;25.97;;;23.57;;
57846;SDS011;43675;50.030;21.952;2022-12-07T08:00:10;24.30;;;22.30;;
57846;SDS011;43675;50.030;21.952;2022-12-07T08:02:38;23.67;;;21.68;;
57846;SDS011;43675;50.030;21.952;2022-12-07T08:05:05;22.90;;;20.80;;
57846;SDS011;43675;50.030;21.952;2022-12-07T08:07:33;22.80;;;20.88;;
57846;SDS011;43675;50.030;21.952;2022-12-07T08:09:59;24.50;;;22.20;;
57846;SDS011;43675;50.030;21.952;2022-12-07T08:12:25;23.67;;;21.68;;
57846;SDS011;43675;50.030;21.952;2022-12-07T08:14:51;22.95;;;21.15;;
57846;SDS011;43675;50.030;21.952;2022-12-07T08:17:16;23.12;;;20.92;;
57846;SDS011;43675;50.030;21.952;2022-12-07T08:19:42;22.62;;;20.82;;
57846;SDS011;43675;50.030;21.952;2022-12-07T08:22:07;23.40;;;21.52;;
57846;SDS011;43675;50.030;21.952;2022-12-07T08:24:34;22.90;;;21.05;;
57846;SDS011;43675;50.030;21.952;2022-12-07T08:27:00;22.00;;;20.27;;
57846;SDS011;43675;50.030;21.952;2022-12-07T08:29:26;22.67;;;20.88;;
57846;SDS011;43675;50.030;21.952;2022-12-07T08:31:52;22.62;;;20.85;;
57846;SDS011;43675;50.030;21.952;2022-12-07T08:34:17;23.12;;;21.27;;
57846;SDS011;43675;50.030;21.952;2022-12-07T08:36:43;22.58;;;20.77;;
57846;SDS011;43675;50.030;21.952;2022-12-07T08:39:09;22.35;;;20.65;;
57846;SDS011;43675;50.030;21.952;2022-12-07T08:41:35;22.35;;;20.27;;
57846;SDS011;43675;50.030;21.952;2022-12-07T08:44:01;22.35;;;20.65;;
57846;SDS011;43675;50.030;21.952;2022-12-07T08:46:31;22.75;;;20.95;;
57846;SDS011;43675;50.030;21.952;2022-12-07T08:49:10;22.27;;;20.43;;
57846;SDS011;43675;50.030;21.952;2022-12-07T08:51:47;22.45;;;20.55;;
57846;SDS011;43675;50.030;21.952;2022-12-07T08:54:14;22.13;;;20.23;;
57846;SDS011;43675;50.030;21.952;2022-12-07T08:56:42;23.22;;;21.30;;
57846;SDS011;43675;50.030;21.952;2022-12-07T08:59:09;22.50;;;20.62;;
57846;SDS011;43675;50.030;21.952;2022-12-07T09:01:36;22.90;;;21.10;;
57846;SDS011;43675;50.030;21.952;2022-12-07T09:04:01;22.90;;;20.97;;
57846;SDS011;43675;50.030;21.952;2022-12-07T09:06:27;23.25;;;21.35;;
57846;SDS011;43675;50.030;21.952;2022-12-07T09:08:54;23.92;;;21.93;;
57846;SDS011;43675;50.030;21.952;2022-12-07T09:11:22;23.62;;;21.62;;
57846;SDS011;43675;50.030;21.952;2022-12-07T09:13:48;24.05;;;21.95;;
57846;SDS011;43675;50.030;21.952;2022-12-07T09:16:14;23.92;;;21.95;;
57846;SDS011;43675;50.030;21.952;2022-12-07T09:18:40;23.27;;;21.30;;
57846;SDS011;43675;50.030;21.952;2022-12-07T09:21:05;23.22;;;21.33;;
57846;SDS011;43675;50.030;21.952;2022-12-07T09:23:31;23.40;;;21.20;;
57846;SDS011;43675;50.030;21.952;2022-12-07T09:26:03;23.45;;;21.55;;
57846;SDS011;43675;50.030;21.952;2022-12-07T09:28:30;23.65;;;21.40;;
57846;SDS011;43675;50.030;21.952;2022-12-07T09:30:56;22.80;;;20.95;;
57846;SDS011;43675;50.030;21.952;2022-12-07T09:33:22;23.35;;;21.45;;
57846;SDS011;43675;50.030;21.952;2022-12-07T09:35:49;23.18;;;21.27;;
57846;SDS011;43675;50.030;21.952;2022-12-07T09:38:16;22.45;;;20.65;;
57846;SDS011;43675;50.030;21.952;2022-12-07T09:40:44;24.45;;;22.13;;
57846;SDS011;43675;50.030;21.952;2022-12-07T09:43:15;23.00;;;21.10;;
57846;SDS011;43675;50.030;21.952;2022-12-07T09:45:43;21.75;;;20.00;;
57846;SDS011;43675;50.030;21.952;2022-12-07T09:48:15;21.97;;;20.17;;
57846;SDS011;43675;50.030;21.952;2022-12-07T09:50:41;21.73;;;19.95;;
57846;SDS011;43675;50.030;21.952;2022-12-07T09:53:08;22.85;;;20.95;;
57846;SDS011;43675;50.030;21.952;2022-12-07T09:55:37;22.25;;;20.37;;
57846;SDS011;43675;50.030;21.952;2022-12-07T09:58:05;21.25;;;19.50;;
57846;SDS011;43675;50.030;21.952;2022-12-07T10:00:31;21.57;;;19.67;;
57846;SDS011;43675;50.030;21.952;2022-12-07T10:03:01;21.93;;;20.02;;
57846;SDS011;43675;50.030;21.952;2022-12-07T10:05:35;22.02;;;20.00;;
57846;SDS011;43675;50.030;21.952;2022-12-07T10:08:03;22.00;;;20.12;;
57846;SDS011;43675;50.030;21.952;2022-12-07T10:10:30;20.77;;;19.07;;
57846;SDS011;43675;50.030;21.952;2022-12-07T10:18:19;21.68;;;19.73;;
57846;SDS011;43675;50.030;21.952;2022-12-07T10:21:04;21.45;;;19.55;;
57846;SDS011;43675;50.030;21.952;2022-12-07T10:23:39;20.82;;;19.23;;
57846;SDS011;43675;50.030;21.952;2022-12-07T10:28:54;21.95;;;20.10;;
57846;SDS011;43675;50.030;21.952;2022-12-07T10:31:22;21.87;;;20.08;;
57846;SDS011;43675;50.030;21.952;2022-12-07T10:33:52;21.35;;;19.52;;
57846;SDS011;43675;50.030;21.952;2022-12-07T10:39:20;21.27;;;19.48;;
57846;SDS011;43675;50.030;21.952;2022-12-07T10:41:58;21.80;;;20.00;;
57846;SDS011;43675;50.030;21.952;2022-12-07T10:44:29;22.42;;;20.52;;
57846;SDS011;43675;50.030;21.952;2022-12-07T10:47:01;21.90;;;20.00;;
57846;SDS011;43675;50.030;21.952;2022-12-07T11:00:39;22.42;;;20.57;;
57846;SDS011;43675;50.030;21.952;2022-12-07T11:03:14;22.93;;;21.02;;
57846;SDS011;43675;50.030;21.952;2022-12-07T11:13:49;23.40;;;21.40;;
57846;SDS011;43675;50.030;21.952;2022-12-07T11:16:30;24.45;;;22.25;;
57846;SDS011;43675;50.030;21.952;2022-12-07T11:21:39;25.05;;;22.82;;
57846;SDS011;43675;50.030;21.952;2022-12-07T11:32:07;22.48;;;20.48;;
57846;SDS011;43675;50.030;21.952;2022-12-07T11:37:36;21.93;;;19.90;;
57846;SDS011;43675;50.030;21.952;2022-12-07T11:42:52;22.10;;;20.20;;
57846;SDS011;43675;50.030;21.952;2022-12-07T11:45:30;21.55;;;19.70;;
57846;SDS011;43675;50.030;21.952;2022-12-07T11:48:02;21.40;;;19.60;;
57846;SDS011;43675;50.030;21.952;2022-12-07T11:53:09;21.95;;;19.95;;
57846;SDS011;43675;50.030;21.952;2022-12-07T11:55:43;22.13;;;20.12;;
57846;SDS011;43675;50.030;21.952;2022-12-07T11:58:22;23.32;;;21.12;;
57846;SDS011;43675;50.030;21.952;2022-12-07T12:06:43;24.07;;;21.80;;
57846;SDS011;43675;50.030;21.952;2022-12-07T12:09:25;25.17;;;22.77;;
57846;SDS011;43675;50.030;21.952;2022-12-07T12:20:13;26.95;;;24.35;;
57846;SDS011;43675;50.030;21.952;2022-12-07T12:22:45;25.77;;;23.45;;
57846;SDS011;43675;50.030;21.952;2022-12-07T12:27:46;26.33;;;23.85;;
57846;SDS011;43675;50.030;21.952;2022-12-07T12:30:24;25.90;;;23.60;;
57846;SDS011;43675;50.030;21.952;2022-12-07T12:32:52;26.27;;;23.67;;
57846;SDS011;43675;50.030;21.952;2022-12-07T12:40:52;24.12;;;21.93;;
57846;SDS011;43675;50.030;21.952;2022-12-07T12:49:14;25.57;;;23.27;;
57846;SDS011;43675;50.030;21.952;2022-12-07T12:51:43;25.52;;;23.07;;
57846;SDS011;43675;50.030;21.952;2022-12-07T12:57:08;27.42;;;24.67;;
57846;SDS011;43675;50.030;21.952;2022-12-07T13:31:57;27.25;;;24.67;;
57846;SDS011;43675;50.030;21.952;2022-12-07T13:34:31;27.98;;;25.37;;
57846;SDS011;43675;50.030;21.952;2022-12-07T13:37:08;27.25;;;24.55;;
57846;SDS011;43675;50.030;21.952;2022-12-07T13:39:44;26.55;;;23.85;;
57846;SDS011;43675;50.030;21.952;2022-12-07T13:42:20;27.67;;;24.95;;
57846;SDS011;43675;50.030;21.952;2022-12-07T13:44:53;27.50;;;24.63;;
57846;SDS011;43675;50.030;21.952;2022-12-07T13:47:28;28.23;;;25.50;;
57846;SDS011;43675;50.030;21.952;2022-12-07T13:49:58;28.15;;;25.37;;
57846;SDS011;43675;50.030;21.952;2022-12-07T13:52:30;28.12;;;25.50;;
57846;SDS011;43675;50.030;21.952;2022-12-07T14:00:17;31.57;;;28.55;;
57846;SDS011;43675;50.030;21.952;2022-12-07T14:02:54;34.33;;;31.02;;
57846;SDS011;43675;50.030;21.952;2022-12-07T14:05:25;35.48;;;31.97;;
57846;SDS011;43675;50.030;21.952;2022-12-07T14:07:56;35.50;;;31.77;;
57846;SDS011;43675;50.030;21.952;2022-12-07T14:12:56;38.28;;;34.10;;
57846;SDS011;43675;50.030;21.952;2022-12-07T14:15:25;39.63;;;35.43;;
57846;SDS011;43675;50.030;21.952;2022-12-07T14:17:53;46.73;;;38.08;;
57846;SDS011;43675;50.030;21.952;2022-12-07T14:20:34;37.05;;;33.15;;
57846;SDS011;43675;50.030;21.952;2022-12-07T14:23:02;38.28;;;34.40;;
57846;SDS011;43675;50.030;21.952;2022-12-07T14:25:32;36.33;;;32.75;;
57846;SDS011;43675;50.030;21.952;2022-12-07T14:28:02;34.73;;;31.35;;
57846;SDS011;43675;50.030;21.952;2022-12-07T14:30:27;33.13;;;29.95;;
57846;SDS011;43675;50.030;21.952;2022-12-07T14:33:04;35.03;;;31.55;;
57846;SDS011;43675;50.030;21.952;2022-12-07T14:35:27;31.82;;;28.73;;
57846;SDS011;43675;50.030;21.952;2022-12-07T14:37:53;36.53;;;32.85;;
57846;SDS011;43675;50.030;21.952;2022-12-07T14:40:20;34.60;;;30.90;;
57846;SDS011;43675;50.030;21.952;2022-12-07T14:42:49;37.67;;;33.58;;
57846;SDS011;43675;50.030;21.952;2022-12-07T14:45:19;44.65;;;40.17;;
57846;SDS011;43675;50.030;21.952;2022-12-07T14:47:46;38.05;;;33.85;;
57846;SDS011;43675;50.030;21.952;2022-12-07T14:50:13;133.32;;;97.47;;
57846;SDS011;43675;50.030;21.952;2022-12-07T14:52:42;141.43;;;95.57;;
57846;SDS011;43675;50.030;21.952;2022-12-07T14:55:14;74.80;;;58.23;;
57846;SDS011;43675;50.030;21.952;2022-12-07T14:57:56;54.58;;;48.63;;
57846;SDS011;43675;50.030;21.952;2022-12-07T15:00:23;49.15;;;43.85;;
57846;SDS011;43675;50.030;21.952;2022-12-07T15:02:51;48.90;;;43.90;;
57846;SDS011;43675;50.030;21.952;2022-12-07T15:05:17;54.70;;;49.03;;
57846;SDS011;43675;50.030;21.952;2022-12-07T15:07:45;52.20;;;47.05;;
57846;SDS011;43675;50.030;21.952;2022-12-07T15:10:16;51.60;;;46.15;;
57846;SDS011;43675;50.030;21.952;2022-12-07T15:12:47;60.63;;;54.20;;
57846;SDS011;43675;50.030;21.952;2022-12-07T15:15:13;52.62;;;47.40;;
57846;SDS011;43675;50.030;21.952;2022-12-07T15:17:39;52.53;;;47.23;;
57846;SDS011;43675;50.030;21.952;2022-12-07T15:20:05;57.00;;;50.90;;
57846;SDS011;43675;50.030;21.952;2022-12-07T15:22:33;56.60;;;49.83;;
57846;SDS011;43675;50.030;21.952;2022-12-07T15:24:58;65.37;;;56.50;;
57846;SDS011;43675;50.030;21.952;2022-12-07T15:27:24;75.40;;;64.97;;
57846;SDS011;43675;50.030;21.952;2022-12-07T15:29:50;55.25;;;49.38;;
57846;SDS011;43675;50.030;21.952;2022-12-07T15:32:15;51.88;;;46.42;;
57846;SDS011;43675;50.030;21.952;2022-12-07T15:34:41;65.57;;;53.40;;
57846;SDS011;43675;50.030;21.952;2022-12-07T15:37:07;95.42;;;60.50;;
57846;SDS011;43675;50.030;21.952;2022-12-07T15:39:33;71.17;;;51.83;;
57846;SDS011;43675;50.030;21.952;2022-12-07T15:41:59;50.63;;;45.08;;
57846;SDS011;43675;50.030;21.952;2022-12-07T15:44:25;126.10;;;77.90;;
57846;SDS011;43675;50.030;21.952;2022-12-07T15:46:50;76.47;;;62.33;;
57846;SDS011;43675;50.030;21.952;2022-12-07T15:49:17;102.25;;;82.45;;
57846;SDS011;43675;50.030;21.952;2022-12-07T15:51:44;109.05;;;82.65;;
57846;SDS011;43675;50.030;21.952;2022-12-07T15:54:15;129.40;;;91.35;;
57846;SDS011;43675;50.030;21.952;2022-12-07T15:56:40;113.70;;;76.40;;
57846;SDS011;43675;50.030;21.952;2022-12-07T15:59:05;64.27;;;52.83;;
57846;SDS011;43675;50.030;21.952;2022-12-07T16:01:31;59.88;;;50.12;;
57846;SDS011;43675;50.030;21.952;2022-12-07T16:03:57;67.35;;;51.63;;
57846;SDS011;43675;50.030;21.952;2022-12-07T16:06:22;120.13;;;65.05;;
57846;SDS011;43675;50.030;21.952;2022-12-07T16:08:48;97.35;;;61.77;;
57846;SDS011;43675;50.030;21.952;2022-12-07T16:11:14;95.85;;;54.03;;
57846;SDS011;43675;50.030;21.952;2022-12-07T16:13:40;121.75;;;66.82;;
57846;SDS011;43675;50.030;21.952;2022-12-07T16:16:07;98.05;;;59.65;;
57846;SDS011;43675;50.030;21.952;2022-12-07T16:18:34;80.05;;;55.48;;
57846;SDS011;43675;50.030;21.952;2022-12-07T16:21:00;100.33;;;65.42;;
57846;SDS011;43675;50.030;21.952;2022-12-07T16:23:26;81.42;;;57.48;;
57846;SDS011;43675;50.030;21.952;2022-12-07T16:25:52;82.42;;;63.58;;
57846;SDS011;43675;50.030;21.952;2022-12-07T16:28:19;102.72;;;70.03;;
57846;SDS011;43675;50.030;21.952;2022-12-07T16:30:44;92.80;;;63.28;;
57846;SDS011;43675;50.030;21.952;2022-12-07T16:33:10;89.83;;;63.73;;
57846;SDS011;43675;50.030;21.952;2022-12-07T16:35:40;90.65;;;65.65;;
57846;SDS011;43675;50.030;21.952;2022-12-07T16:38:06;67.00;;;55.55;;
57846;SDS011;43675;50.030;21.952;2022-12-07T16:40:35;59.58;;;52.65;;
57846;SDS011;43675;50.030;21.952;2022-12-07T16:43:01;61.75;;;48.80;;
57846;SDS011;43675;50.030;21.952;2022-12-07T16:45:27;94.22;;;61.13;;